Wanilla, Mississippi
Current Conditions -  °F | °C
As of 3:46 PM on Thursday 18 Dec 2014 (Local Time) from KMCB Reporting Station
Light Rain Light Rain  
Wind Chill: 50°   Ceiling: 5000
Heat Index: 50°   Visibility: 3mi
Dew Point: 48°   Wind: 5mph
Humidity: 93%   Direction: 70°ENE
Pressure: 30.12"   Gusts: NA
Location:  31.4742°N, 90.119°W
Report Text: KMCB 182146Z AUTO 07004KT 3SM -RA BR FEW004 BKN050 OVC070 10/09 A3012 RMK AO2 P0012 T01000089
Loading
Personal Weather Stations






























Interactive Weather Map New forecast layout! Learn more

10-Day Weather Forecast

Advertisements
Track Severe Weather on mobile